• Join FlightAware (Why Join?)
  • Login
  • US Flag 
Trick or treat! (Boo!!) 
10:24AM EDT


 

Airport Tracker/Info


-or-


 

Live Flight TrackerFlight Track Log ✈ ASQ5958 ✈ 13-May-2013 ✈ KORD - KTYS

Flight Track Log - Related Links

Times and Time Zones

All times are in EDT time to prevent confusion due to time zone crossing. See the ASQ5958 flight status page for this flight to view local times or setup timezone preferences in your user account.

Time Position Orientation Groundspeed Altitude Reporting Facility
EDT Latitude Longitude Course Direction KTS MPH feet Rate Location/Type
06:29PM 41.9333 -87.9000 180° South 186 214 2,300  Level Chicago TRACON
06:30PM 41.8667 -87.9000 180° South 238 274 4,700 2,340 Climbing Chicago TRACON
06:31PM 41.8047 -87.8903 173° South 248 285 7,200 2,280 Climbing Chicago Center
06:32PM 41.7322 -87.8483 157° South 297 342 9,600 2,340 Climbing Chicago Center
06:33PM 41.6569 -87.7814 146° Southeast 325 374 12,100 2,520 Climbing Chicago Center
06:34PM 41.5622 -87.6950 146° Southeast 341 392 14,900 2,340 Climbing Chicago Center
06:35PM 41.4764 -87.6183 146° Southeast 365 420 17,000 1,620 Climbing Chicago Center
06:36PM 41.3764 -87.5658 158° South 397 457 18,300 1,200 Climbing Chicago Center
06:37PM 41.2592 -87.5425 171° South 420 483 19,600 1,680 Climbing Chicago Center
06:38PM 41.1406 -87.5183 171° South 429 494 21,800 2,040 Climbing Chicago Center
06:39PM 41.0236 -87.4856 168° South 430 495 23,900 1,500 Climbing Chicago Center
06:40PM 40.9056 -87.4528 168° South 434 499 25,000 480 Climbing Chicago Center
06:41PM 40.7467 -87.4133 169° South 482 555 25,000  Level Chicago Center
06:42PM 40.6072 -87.3769 169° South 507 583 25,000  Level Chicago Center
06:43PM 40.4672 -87.3369 168° South 514 592 25,000  Level Chicago Center
06:44PM 40.3428 -87.2331 148° Southeast 513 590 25,000  Level Chicago Center
06:45PM 40.2258 -87.1242 145° Southeast 516 594 25,000  Level Chicago Center
06:46PM 40.1092 -87.0169 145° Southeast 515 593 25,000  Level Chicago Center
06:47PM 39.9906 -86.9078 145° Southeast 518 596 25,000  Level Indianapolis Center
06:48PM 39.8714 -86.8081 147° Southeast 515 593 25,000  Level Indianapolis Center
06:49PM 39.7506 -86.7094 148° Southeast 517 595 25,000  Level Indianapolis Center
06:50PM 39.6650 -86.5692 128° Southeast 507 583 25,000  Level Indianapolis Center
06:51PM 39.5850 -86.3847 119° Southeast 501 577 25,000  Level Indianapolis Center
06:52PM 39.5181 -86.2314 119° Southeast 500 575 25,000  Level Indianapolis Center
06:53PM 39.4497 -86.0775 120° Southeast 501 577 25,000  Level Indianapolis Center
06:54PM 39.3583 -85.9394 131° Southeast 507 583 25,000  Level Indianapolis Center
06:55PM 39.2319 -85.8539 152° Southeast 516 594 25,000  Level Indianapolis Center
06:56PM 39.0739 -85.7617 156° South 520 598 25,000  Level Indianapolis Center
06:57PM 38.9417 -85.6875 156° South 520 598 25,000  Level Indianapolis Center
06:58PM 38.8094 -85.6131 156° South 519 597 25,000  Level Indianapolis Center
06:59PM 38.6781 -85.5394 156° South 519 597 25,000  Level Indianapolis Center
07:00PM 38.5378 -85.4603 156° South 517 595 25,000  Level Indianapolis Center
07:01PM 38.4042 -85.3853 156° South 520 598 25,000  Level Indianapolis Center
07:03PM 38.2708 -85.3119 157° South 519 597 25,000  Level Indianapolis Center
07:04PM 38.1356 -85.2372 157° South 524 603 25,000  Level Indianapolis Center
07:05PM 37.9878 -85.1550 156° South 520 598 25,000  Level Indianapolis Center
07:06PM 37.8539 -85.0828 157° South 521 600 25,000  Level Indianapolis Center
07:07PM 37.7231 -85.0097 156° South 516 594 25,000  Level Indianapolis Center
07:08PM 37.5669 -84.9253 157° South 520 598 25,000  Level Indianapolis Center
07:09PM 37.4336 -84.8533 157° South 521 600 25,000  Level Indianapolis Center
07:10PM 37.3008 -84.7817 157° South 521 600 25,000  Level Indianapolis Center
07:11PM 37.1675 -84.7094 157° South 521 600 25,000  Level Indianapolis Center
07:12PM 37.0142 -84.6272 157° South 519 597 25,000 -780 Level Indianapolis Center
07:13PM 36.8808 -84.5550 157° South 520 598 23,500 -2,040 Descending Indianapolis Center
07:14PM 36.7536 -84.4878 157° South 499 574 20,900 -2,520 Descending Indianapolis Center
07:15PM 36.6303 -84.4228 157° South 486 559 18,300 -2,460 Descending Indianapolis Center
07:16PM 36.5122 -84.3608 157° South 470 541 15,900 -2,520 Descending Indianapolis Center
07:17PM 36.3978 -84.3006 157° South 455 524 13,100 -2,940 Descending Indianapolis Center
07:17PM 36.3564 -84.2836 162° South 461 531 12,200 -1,680 Descending Atlanta Center
07:18PM 36.2542 -84.2189 153° Southeast 429 494 11,000 -660 Descending Atlanta Center
07:19PM 36.1750 -84.1236 136° Southeast 403 464 10,900  Descending Atlanta Center
07:20PM 36.1147 -84.0439 133° Southeast 386 444 11,000 -900 Climbing Atlanta Center
07:21PM 36.0500 -83.9772 140° Southeast 345 397 9,100 -2,100 Descending Atlanta Center
07:22PM 35.9769 -83.9489 163° South 290 334 6,800 -2,400 Descending Atlanta Center
07:23PM 35.9100 -83.9208 161° South 277 319 4,400 -2,040 Descending Atlanta Center
07:24PM 35.8581 -83.9336 191° South 229 264 2,800 -1,500 Descending Atlanta Center
07:25PM 35.8289 -83.9694 225° Southwest 174 200 1,500 -1,320 Descending Atlanta Center